sensor_id;sensor_type;location;lat;lon;timestamp;P1;durP1;ratioP1;P2;durP2;ratioP2
32200;SDS011;18701;45.588;5.288;2023-11-22T00:01:19;6.72;;;3.78;;
32200;SDS011;18701;45.588;5.288;2023-11-22T00:03:45;12.00;;;4.30;;
32200;SDS011;18701;45.588;5.288;2023-11-22T00:06:11;7.60;;;3.67;;
32200;SDS011;18701;45.588;5.288;2023-11-22T00:08:37;9.35;;;4.25;;
32200;SDS011;18701;45.588;5.288;2023-11-22T00:11:02;9.07;;;3.60;;
32200;SDS011;18701;45.588;5.288;2023-11-22T00:13:28;8.63;;;4.00;;
32200;SDS011;18701;45.588;5.288;2023-11-22T00:15:54;8.65;;;4.18;;
32200;SDS011;18701;45.588;5.288;2023-11-22T00:18:20;4.88;;;3.55;;
32200;SDS011;18701;45.588;5.288;2023-11-22T00:20:46;5.25;;;3.70;;
32200;SDS011;18701;45.588;5.288;2023-11-22T00:23:12;10.48;;;4.20;;
32200;SDS011;18701;45.588;5.288;2023-11-22T00:25:38;7.32;;;4.40;;
32200;SDS011;18701;45.588;5.288;2023-11-22T00:28:03;7.72;;;3.92;;
32200;SDS011;18701;45.588;5.288;2023-11-22T00:30:31;9.32;;;4.25;;
32200;SDS011;18701;45.588;5.288;2023-11-22T00:32:56;6.90;;;4.38;;
32200;SDS011;18701;45.588;5.288;2023-11-22T00:35:22;5.57;;;3.75;;
32200;SDS011;18701;45.588;5.288;2023-11-22T00:37:48;8.00;;;4.72;;
32200;SDS011;18701;45.588;5.288;2023-11-22T00:40:13;8.43;;;4.72;;
32200;SDS011;18701;45.588;5.288;2023-11-22T00:42:39;9.05;;;4.97;;
32200;SDS011;18701;45.588;5.288;2023-11-22T00:45:07;11.35;;;4.88;;
32200;SDS011;18701;45.588;5.288;2023-11-22T00:47:34;10.70;;;4.85;;
32200;SDS011;18701;45.588;5.288;2023-11-22T00:50:00;8.73;;;4.72;;
32200;SDS011;18701;45.588;5.288;2023-11-22T00:52:27;10.65;;;4.97;;
32200;SDS011;18701;45.588;5.288;2023-11-22T00:54:53;10.23;;;4.80;;
32200;SDS011;18701;45.588;5.288;2023-11-22T00:57:19;10.25;;;5.07;;
32200;SDS011;18701;45.588;5.288;2023-11-22T00:59:45;6.72;;;4.22;;
32200;SDS011;18701;45.588;5.288;2023-11-22T01:02:10;12.65;;;5.70;;
32200;SDS011;18701;45.588;5.288;2023-11-22T01:04:36;7.97;;;4.38;;
32200;SDS011;18701;45.588;5.288;2023-11-22T01:07:02;8.52;;;5.45;;
32200;SDS011;18701;45.588;5.288;2023-11-22T01:09:34;13.30;;;4.88;;
32200;SDS011;18701;45.588;5.288;2023-11-22T01:12:00;8.50;;;4.80;;
32200;SDS011;18701;45.588;5.288;2023-11-22T01:14:26;8.40;;;5.22;;
32200;SDS011;18701;45.588;5.288;2023-11-22T01:16:52;11.75;;;5.00;;
32200;SDS011;18701;45.588;5.288;2023-11-22T01:19:19;9.02;;;5.93;;
32200;SDS011;18701;45.588;5.288;2023-11-22T01:21:45;7.78;;;5.15;;
32200;SDS011;18701;45.588;5.288;2023-11-22T01:24:11;10.82;;;5.43;;
32200;SDS011;18701;45.588;5.288;2023-11-22T01:26:37;7.88;;;4.55;;
32200;SDS011;18701;45.588;5.288;2023-11-22T01:29:03;11.60;;;5.18;;
32200;SDS011;18701;45.588;5.288;2023-11-22T01:31:29;10.60;;;5.20;;
32200;SDS011;18701;45.588;5.288;2023-11-22T01:33:55;8.50;;;5.03;;
32200;SDS011;18701;45.588;5.288;2023-11-22T01:36:20;8.85;;;5.60;;
32200;SDS011;18701;45.588;5.288;2023-11-22T01:38:46;8.93;;;5.65;;
32200;SDS011;18701;45.588;5.288;2023-11-22T01:41:14;8.48;;;5.13;;
32200;SDS011;18701;45.588;5.288;2023-11-22T01:43:40;8.20;;;4.80;;
32200;SDS011;18701;45.588;5.288;2023-11-22T01:46:10;10.00;;;5.40;;
32200;SDS011;18701;45.588;5.288;2023-11-22T01:48:42;10.82;;;5.38;;
32200;SDS011;18701;45.588;5.288;2023-11-22T01:51:07;5.97;;;4.45;;
32200;SDS011;18701;45.588;5.288;2023-11-22T01:53:33;10.93;;;5.35;;
32200;SDS011;18701;45.588;5.288;2023-11-22T01:55:59;8.52;;;4.95;;
32200;SDS011;18701;45.588;5.288;2023-11-22T01:58:26;8.50;;;5.13;;
32200;SDS011;18701;45.588;5.288;2023-11-22T02:00:52;9.73;;;5.70;;
32200;SDS011;18701;45.588;5.288;2023-11-22T02:03:18;12.02;;;5.88;;
32200;SDS011;18701;45.588;5.288;2023-11-22T02:05:46;11.20;;;6.13;;
32200;SDS011;18701;45.588;5.288;2023-11-22T02:08:12;8.20;;;5.18;;
32200;SDS011;18701;45.588;5.288;2023-11-22T02:10:38;10.55;;;4.85;;
32200;SDS011;18701;45.588;5.288;2023-11-22T02:13:05;10.82;;;5.18;;
32200;SDS011;18701;45.588;5.288;2023-11-22T02:15:35;9.98;;;4.60;;
32200;SDS011;18701;45.588;5.288;2023-11-22T02:18:01;10.55;;;5.30;;
32200;SDS011;18701;45.588;5.288;2023-11-22T02:20:28;7.85;;;4.80;;
32200;SDS011;18701;45.588;5.288;2023-11-22T02:22:55;10.07;;;4.93;;
32200;SDS011;18701;45.588;5.288;2023-11-22T02:25:22;10.90;;;5.28;;
32200;SDS011;18701;45.588;5.288;2023-11-22T02:27:47;8.98;;;4.60;;
32200;SDS011;18701;45.588;5.288;2023-11-22T02:30:13;11.60;;;5.22;;
32200;SDS011;18701;45.588;5.288;2023-11-22T02:32:39;9.07;;;4.65;;
32200;SDS011;18701;45.588;5.288;2023-11-22T02:35:05;9.05;;;5.20;;
32200;SDS011;18701;45.588;5.288;2023-11-22T02:37:34;10.82;;;5.07;;
32200;SDS011;18701;45.588;5.288;2023-11-22T02:40:11;10.07;;;5.45;;
32200;SDS011;18701;45.588;5.288;2023-11-22T02:42:48;9.85;;;5.85;;
32200;SDS011;18701;45.588;5.288;2023-11-22T02:45:19;13.75;;;5.43;;
32200;SDS011;18701;45.588;5.288;2023-11-22T02:47:50;8.82;;;5.00;;
32200;SDS011;18701;45.588;5.288;2023-11-22T02:50:16;12.75;;;6.57;;
32200;SDS011;18701;45.588;5.288;2023-11-22T02:52:42;12.27;;;5.60;;
32200;SDS011;18701;45.588;5.288;2023-11-22T02:55:08;11.25;;;5.60;;
32200;SDS011;18701;45.588;5.288;2023-11-22T02:57:35;8.43;;;5.65;;
32200;SDS011;18701;45.588;5.288;2023-11-22T03:00:01;10.40;;;5.85;;
32200;SDS011;18701;45.588;5.288;2023-11-22T03:02:29;11.25;;;6.35;;
32200;SDS011;18701;45.588;5.288;2023-11-22T03:04:55;12.65;;;6.13;;
32200;SDS011;18701;45.588;5.288;2023-11-22T03:07:20;8.18;;;5.20;;
32200;SDS011;18701;45.588;5.288;2023-11-22T03:09:46;10.45;;;5.97;;
32200;SDS011;18701;45.588;5.288;2023-11-22T03:12:13;11.40;;;6.63;;
32200;SDS011;18701;45.588;5.288;2023-11-22T03:14:40;11.73;;;5.93;;
32200;SDS011;18701;45.588;5.288;2023-11-22T03:17:06;12.57;;;5.90;;
32200;SDS011;18701;45.588;5.288;2023-11-22T03:19:33;9.82;;;5.60;;
32200;SDS011;18701;45.588;5.288;2023-11-22T03:21:59;13.45;;;6.55;;
32200;SDS011;18701;45.588;5.288;2023-11-22T03:24:27;9.93;;;6.05;;
32200;SDS011;18701;45.588;5.288;2023-11-22T03:26:54;15.68;;;6.28;;
32200;SDS011;18701;45.588;5.288;2023-11-22T03:29:21;11.90;;;6.22;;
32200;SDS011;18701;45.588;5.288;2023-11-22T03:31:46;9.98;;;5.80;;
32200;SDS011;18701;45.588;5.288;2023-11-22T03:34:13;9.57;;;5.53;;
32200;SDS011;18701;45.588;5.288;2023-11-22T03:36:40;13.40;;;7.25;;
32200;SDS011;18701;45.588;5.288;2023-11-22T03:39:05;12.85;;;6.78;;
32200;SDS011;18701;45.588;5.288;2023-11-22T03:41:31;12.27;;;6.65;;
32200;SDS011;18701;45.588;5.288;2023-11-22T03:43:57;16.45;;;6.05;;
32200;SDS011;18701;45.588;5.288;2023-11-22T03:46:22;10.35;;;6.03;;
32200;SDS011;18701;45.588;5.288;2023-11-22T03:48:48;12.73;;;6.32;;
32200;SDS011;18701;45.588;5.288;2023-11-22T03:51:13;10.15;;;4.68;;
32200;SDS011;18701;45.588;5.288;2023-11-22T03:53:39;13.07;;;6.88;;
32200;SDS011;18701;45.588;5.288;2023-11-22T03:56:04;12.70;;;6.18;;
32200;SDS011;18701;45.588;5.288;2023-11-22T03:58:30;12.18;;;5.93;;
32200;SDS011;18701;45.588;5.288;2023-11-22T04:00:56;12.35;;;6.50;;
32200;SDS011;18701;45.588;5.288;2023-11-22T04:03:22;14.05;;;7.00;;
32200;SDS011;18701;45.588;5.288;2023-11-22T04:05:48;12.52;;;5.82;;
32200;SDS011;18701;45.588;5.288;2023-11-22T04:08:13;12.25;;;6.13;;
32200;SDS011;18701;45.588;5.288;2023-11-22T04:10:39;14.38;;;7.25;;
32200;SDS011;18701;45.588;5.288;2023-11-22T04:13:04;10.25;;;6.50;;
32200;SDS011;18701;45.588;5.288;2023-11-22T04:15:30;11.70;;;6.35;;
32200;SDS011;18701;45.588;5.288;2023-11-22T04:17:57;11.30;;;5.40;;
32200;SDS011;18701;45.588;5.288;2023-11-22T04:20:22;11.57;;;6.07;;
32200;SDS011;18701;45.588;5.288;2023-11-22T04:22:48;13.55;;;7.00;;
32200;SDS011;18701;45.588;5.288;2023-11-22T04:25:13;16.10;;;7.57;;
32200;SDS011;18701;45.588;5.288;2023-11-22T04:27:39;15.07;;;7.55;;
32200;SDS011;18701;45.588;5.288;2023-11-22T04:33:12;12.50;;;6.40;;
32200;SDS011;18701;45.588;5.288;2023-11-22T04:35:38;13.43;;;6.82;;
32200;SDS011;18701;45.588;5.288;2023-11-22T04:38:04;10.88;;;6.38;;
32200;SDS011;18701;45.588;5.288;2023-11-22T04:40:30;14.70;;;6.68;;
32200;SDS011;18701;45.588;5.288;2023-11-22T04:42:55;11.95;;;6.93;;
32200;SDS011;18701;45.588;5.288;2023-11-22T04:45:21;12.50;;;7.10;;
32200;SDS011;18701;45.588;5.288;2023-11-22T04:47:47;14.77;;;7.47;;
32200;SDS011;18701;45.588;5.288;2023-11-22T04:50:12;15.38;;;7.15;;
32200;SDS011;18701;45.588;5.288;2023-11-22T04:52:38;14.63;;;6.50;;
32200;SDS011;18701;45.588;5.288;2023-11-22T04:55:04;12.00;;;6.93;;
32200;SDS011;18701;45.588;5.288;2023-11-22T04:57:30;16.77;;;7.20;;
32200;SDS011;18701;45.588;5.288;2023-11-22T04:59:56;14.73;;;7.82;;
32200;SDS011;18701;45.588;5.288;2023-11-22T05:02:22;13.32;;;7.25;;
32200;SDS011;18701;45.588;5.288;2023-11-22T05:04:47;16.90;;;7.38;;
32200;SDS011;18701;45.588;5.288;2023-11-22T05:07:14;14.38;;;7.32;;
32200;SDS011;18701;45.588;5.288;2023-11-22T05:09:41;17.15;;;6.78;;
32200;SDS011;18701;45.588;5.288;2023-11-22T05:12:08;14.27;;;6.60;;
32200;SDS011;18701;45.588;5.288;2023-11-22T05:14:35;15.98;;;7.32;;
32200;SDS011;18701;45.588;5.288;2023-11-22T05:17:01;12.40;;;7.13;;
32200;SDS011;18701;45.588;5.288;2023-11-22T05:19:27;16.58;;;6.85;;
32200;SDS011;18701;45.588;5.288;2023-11-22T05:21:52;14.32;;;7.32;;
32200;SDS011;18701;45.588;5.288;2023-11-22T05:24:18;13.55;;;7.20;;
32200;SDS011;18701;45.588;5.288;2023-11-22T05:26:44;14.73;;;7.05;;
32200;SDS011;18701;45.588;5.288;2023-11-22T05:29:10;17.60;;;8.30;;
32200;SDS011;18701;45.588;5.288;2023-11-22T05:31:35;14.05;;;7.53;;
32200;SDS011;18701;45.588;5.288;2023-11-22T05:34:02;9.75;;;5.97;;
32200;SDS011;18701;45.588;5.288;2023-11-22T05:36:28;15.90;;;6.88;;
32200;SDS011;18701;45.588;5.288;2023-11-22T05:38:54;13.02;;;7.22;;
32200;SDS011;18701;45.588;5.288;2023-11-22T05:41:22;12.60;;;6.97;;
32200;SDS011;18701;45.588;5.288;2023-11-22T05:43:48;12.27;;;6.95;;
32200;SDS011;18701;45.588;5.288;2023-11-22T05:46:14;10.60;;;6.20;;
32200;SDS011;18701;45.588;5.288;2023-11-22T05:48:41;12.43;;;7.28;;
32200;SDS011;18701;45.588;5.288;2023-11-22T05:51:07;19.83;;;6.75;;
32200;SDS011;18701;45.588;5.288;2023-11-22T05:53:33;11.90;;;6.88;;
32200;SDS011;18701;45.588;5.288;2023-11-22T05:55:59;13.82;;;7.03;;
32200;SDS011;18701;45.588;5.288;2023-11-22T05:58:25;13.88;;;7.13;;
32200;SDS011;18701;45.588;5.288;2023-11-22T06:00:51;10.50;;;6.18;;
32200;SDS011;18701;45.588;5.288;2023-11-22T06:03:17;16.10;;;6.63;;
32200;SDS011;18701;45.588;5.288;2023-11-22T06:05:42;10.05;;;5.97;;
32200;SDS011;18701;45.588;5.288;2023-11-22T06:08:09;14.18;;;6.47;;
32200;SDS011;18701;45.588;5.288;2023-11-22T06:10:34;15.73;;;6.47;;
32200;SDS011;18701;45.588;5.288;2023-11-22T06:13:00;11.15;;;6.43;;
32200;SDS011;18701;45.588;5.288;2023-11-22T06:15:26;10.75;;;6.28;;
32200;SDS011;18701;45.588;5.288;2023-11-22T06:17:51;13.23;;;7.20;;
32200;SDS011;18701;45.588;5.288;2023-11-22T06:20:17;14.52;;;6.57;;
32200;SDS011;18701;45.588;5.288;2023-11-22T06:22:43;12.02;;;5.90;;
32200;SDS011;18701;45.588;5.288;2023-11-22T06:25:09;14.20;;;6.72;;
32200;SDS011;18701;45.588;5.288;2023-11-22T06:27:38;16.52;;;6.60;;
32200;SDS011;18701;45.588;5.288;2023-11-22T06:30:05;13.45;;;6.30;;
32200;SDS011;18701;45.588;5.288;2023-11-22T06:32:31;14.60;;;7.07;;
32200;SDS011;18701;45.588;5.288;2023-11-22T06:34:57;14.20;;;6.90;;
32200;SDS011;18701;45.588;5.288;2023-11-22T06:37:23;14.52;;;7.38;;
32200;SDS011;18701;45.588;5.288;2023-11-22T06:39:48;12.02;;;6.15;;
32200;SDS011;18701;45.588;5.288;2023-11-22T06:42:15;11.13;;;6.72;;
32200;SDS011;18701;45.588;5.288;2023-11-22T06:44:41;11.93;;;7.03;;
32200;SDS011;18701;45.588;5.288;2023-11-22T06:47:07;13.30;;;6.75;;
32200;SDS011;18701;45.588;5.288;2023-11-22T06:49:33;13.38;;;7.22;;
32200;SDS011;18701;45.588;5.288;2023-11-22T06:51:59;17.98;;;6.97;;
32200;SDS011;18701;45.588;5.288;2023-11-22T06:54:24;14.70;;;7.20;;
32200;SDS011;18701;45.588;5.288;2023-11-22T06:56:50;14.13;;;7.55;;
32200;SDS011;18701;45.588;5.288;2023-11-22T06:59:16;17.75;;;7.18;;
32200;SDS011;18701;45.588;5.288;2023-11-22T07:01:43;14.65;;;6.78;;
32200;SDS011;18701;45.588;5.288;2023-11-22T07:04:09;11.90;;;7.05;;
32200;SDS011;18701;45.588;5.288;2023-11-22T07:06:34;14.55;;;7.38;;
32200;SDS011;18701;45.588;5.288;2023-11-22T07:09:02;15.75;;;7.32;;
32200;SDS011;18701;45.588;5.288;2023-11-22T07:11:34;18.73;;;7.38;;
32200;SDS011;18701;45.588;5.288;2023-11-22T07:14:02;17.67;;;7.95;;
32200;SDS011;18701;45.588;5.288;2023-11-22T07:16:29;13.02;;;7.13;;
32200;SDS011;18701;45.588;5.288;2023-11-22T07:18:54;15.48;;;8.00;;
32200;SDS011;18701;45.588;5.288;2023-11-22T07:21:20;13.57;;;6.97;;
32200;SDS011;18701;45.588;5.288;2023-11-22T07:23:46;11.23;;;7.57;;
32200;SDS011;18701;45.588;5.288;2023-11-22T07:26:12;19.20;;;8.65;;
32200;SDS011;18701;45.588;5.288;2023-11-22T07:28:41;17.52;;;8.23;;
32200;SDS011;18701;45.588;5.288;2023-11-22T07:31:07;18.48;;;8.90;;
32200;SDS011;18701;45.588;5.288;2023-11-22T07:33:34;17.83;;;8.07;;
32200;SDS011;18701;45.588;5.288;2023-11-22T07:36:00;14.55;;;7.20;;
32200;SDS011;18701;45.588;5.288;2023-11-22T07:38:27;15.93;;;7.88;;
32200;SDS011;18701;45.588;5.288;2023-11-22T07:40:54;14.98;;;8.60;;
32200;SDS011;18701;45.588;5.288;2023-11-22T07:43:21;15.27;;;8.57;;
32200;SDS011;18701;45.588;5.288;2023-11-22T07:45:47;17.52;;;8.15;;
32200;SDS011;18701;45.588;5.288;2023-11-22T07:48:13;18.63;;;8.60;;
32200;SDS011;18701;45.588;5.288;2023-11-22T07:50:39;14.00;;;8.35;;
32200;SDS011;18701;45.588;5.288;2023-11-22T07:53:08;12.85;;;7.57;;
32200;SDS011;18701;45.588;5.288;2023-11-22T07:55:38;15.70;;;7.70;;
32200;SDS011;18701;45.588;5.288;2023-11-22T07:58:04;14.07;;;8.77;;
32200;SDS011;18701;45.588;5.288;2023-11-22T08:00:33;13.63;;;7.35;;
32200;SDS011;18701;45.588;5.288;2023-11-22T08:02:59;16.17;;;8.10;;
32200;SDS011;18701;45.588;5.288;2023-11-22T08:05:27;13.80;;;8.10;;
32200;SDS011;18701;45.588;5.288;2023-11-22T08:08:00;22.10;;;7.63;;
32200;SDS011;18701;45.588;5.288;2023-11-22T08:10:26;33.80;;;9.27;;
32200;SDS011;18701;45.588;5.288;2023-11-22T08:12:53;14.65;;;7.57;;
32200;SDS011;18701;45.588;5.288;2023-11-22T08:15:18;14.95;;;7.50;;
32200;SDS011;18701;45.588;5.288;2023-11-22T08:17:45;11.60;;;7.03;;
32200;SDS011;18701;45.588;5.288;2023-11-22T08:20:11;12.45;;;6.95;;
32200;SDS011;18701;45.588;5.288;2023-11-22T08:22:38;12.32;;;6.03;;
32200;SDS011;18701;45.588;5.288;2023-11-22T08:25:05;10.68;;;6.32;;
32200;SDS011;18701;45.588;5.288;2023-11-22T08:27:33;14.45;;;6.60;;
32200;SDS011;18701;45.588;5.288;2023-11-22T08:29:59;14.30;;;6.50;;
32200;SDS011;18701;45.588;5.288;2023-11-22T08:32:30;11.75;;;6.35;;
32200;SDS011;18701;45.588;5.288;2023-11-22T08:34:56;14.02;;;6.18;;
32200;SDS011;18701;45.588;5.288;2023-11-22T08:37:22;11.80;;;6.03;;
32200;SDS011;18701;45.588;5.288;2023-11-22T08:39:47;10.45;;;5.82;;
32200;SDS011;18701;45.588;5.288;2023-11-22T08:42:13;9.65;;;6.15;;
32200;SDS011;18701;45.588;5.288;2023-11-22T08:44:39;9.50;;;5.75;;
32200;SDS011;18701;45.588;5.288;2023-11-22T08:47:05;8.02;;;5.28;;
32200;SDS011;18701;45.588;5.288;2023-11-22T08:49:31;11.70;;;6.13;;
32200;SDS011;18701;45.588;5.288;2023-11-22T08:51:58;10.23;;;5.55;;
32200;SDS011;18701;45.588;5.288;2023-11-22T08:54:28;12.20;;;4.82;;
32200;SDS011;18701;45.588;5.288;2023-11-22T08:56:54;10.38;;;5.43;;
32200;SDS011;18701;45.588;5.288;2023-11-22T08:59:23;9.73;;;4.97;;
32200;SDS011;18701;45.588;5.288;2023-11-22T09:01:49;8.70;;;5.30;;
32200;SDS011;18701;45.588;5.288;2023-11-22T09:04:14;8.65;;;4.60;;
32200;SDS011;18701;45.588;5.288;2023-11-22T09:06:41;10.18;;;4.70;;
32200;SDS011;18701;45.588;5.288;2023-11-22T09:09:07;7.72;;;4.68;;
32200;SDS011;18701;45.588;5.288;2023-11-22T09:11:33;11.18;;;4.65;;
32200;SDS011;18701;45.588;5.288;2023-11-22T09:13:59;8.10;;;4.45;;
32200;SDS011;18701;45.588;5.288;2023-11-22T09:16:34;8.40;;;5.30;;
32200;SDS011;18701;45.588;5.288;2023-11-22T09:19:00;8.55;;;4.95;;
32200;SDS011;18701;45.588;5.288;2023-11-22T09:21:26;6.20;;;4.15;;
32200;SDS011;18701;45.588;5.288;2023-11-22T09:23:52;10.23;;;4.55;;
32200;SDS011;18701;45.588;5.288;2023-11-22T09:26:17;6.60;;;4.50;;
32200;SDS011;18701;45.588;5.288;2023-11-22T09:28:43;10.82;;;4.88;;
32200;SDS011;18701;45.588;5.288;2023-11-22T09:31:09;7.00;;;4.10;;
32200;SDS011;18701;45.588;5.288;2023-11-22T09:33:38;5.50;;;3.85;;
32200;SDS011;18701;45.588;5.288;2023-11-22T09:36:04;6.78;;;4.38;;
32200;SDS011;18701;45.588;5.288;2023-11-22T09:38:29;5.00;;;3.28;;
32200;SDS011;18701;45.588;5.288;2023-11-22T09:40:55;6.97;;;3.90;;
32200;SDS011;18701;45.588;5.288;2023-11-22T09:43:21;5.68;;;3.20;;
32200;SDS011;18701;45.588;5.288;2023-11-22T09:45:49;7.90;;;3.08;;
32200;SDS011;18701;45.588;5.288;2023-11-22T09:48:17;8.43;;;4.35;;
32200;SDS011;18701;45.588;5.288;2023-11-22T09:53:19;9.85;;;3.90;;
32200;SDS011;18701;45.588;5.288;2023-11-22T09:55:59;8.50;;;4.57;;
32200;SDS011;18701;45.588;5.288;2023-11-22T09:58:33;5.90;;;3.80;;
32200;SDS011;18701;45.588;5.288;2023-11-22T10:01:00;14.82;;;4.75;;
32200;SDS011;18701;45.588;5.288;2023-11-22T10:03:26;8.38;;;4.07;;
32200;SDS011;18701;45.588;5.288;2023-11-22T10:05:54;5.10;;;3.85;;
32200;SDS011;18701;45.588;5.288;2023-11-22T10:08:27;7.60;;;4.20;;
32200;SDS011;18701;45.588;5.288;2023-11-22T10:10:54;7.60;;;3.88;;
32200;SDS011;18701;45.588;5.288;2023-11-22T10:13:20;8.95;;;4.07;;
32200;SDS011;18701;45.588;5.288;2023-11-22T10:15:47;7.95;;;3.42;;
32200;SDS011;18701;45.588;5.288;2023-11-22T10:18:16;7.63;;;3.60;;
32200;SDS011;18701;45.588;5.288;2023-11-22T10:20:43;6.22;;;3.53;;
32200;SDS011;18701;45.588;5.288;2023-11-22T10:23:11;10.75;;;3.58;;
32200;SDS011;18701;45.588;5.288;2023-11-22T10:28:20;7.80;;;4.00;;
32200;SDS011;18701;45.588;5.288;2023-11-22T10:30:48;9.77;;;3.75;;
32200;SDS011;18701;45.588;5.288;2023-11-22T10:33:15;7.32;;;3.42;;
32200;SDS011;18701;45.588;5.288;2023-11-22T10:35:44;6.53;;;3.40;;
32200;SDS011;18701;45.588;5.288;2023-11-22T10:38:10;8.70;;;3.47;;
32200;SDS011;18701;45.588;5.288;2023-11-22T10:40:38;7.88;;;3.13;;
32200;SDS011;18701;45.588;5.288;2023-11-22T10:43:04;6.28;;;2.90;;
32200;SDS011;18701;45.588;5.288;2023-11-22T10:45:32;5.05;;;2.35;;
32200;SDS011;18701;45.588;5.288;2023-11-22T10:48:00;4.40;;;2.70;;
32200;SDS011;18701;45.588;5.288;2023-11-22T10:50:26;6.63;;;2.83;;
32200;SDS011;18701;45.588;5.288;2023-11-22T10:52:53;4.88;;;2.40;;
32200;SDS011;18701;45.588;5.288;2023-11-22T10:55:22;4.28;;;2.08;;
32200;SDS011;18701;45.588;5.288;2023-11-22T10:57:56;2.55;;;1.63;;
32200;SDS011;18701;45.588;5.288;2023-11-22T11:00:27;4.72;;;2.15;;
32200;SDS011;18701;45.588;5.288;2023-11-22T11:03:03;5.55;;;3.03;;
32200;SDS011;18701;45.588;5.288;2023-11-22T11:05:41;3.53;;;2.03;;
32200;SDS011;18701;45.588;5.288;2023-11-22T11:08:22;7.38;;;2.70;;
32200;SDS011;18701;45.588;5.288;2023-11-22T11:10:52;3.70;;;2.40;;
32200;SDS011;18701;45.588;5.288;2023-11-22T11:13:21;4.63;;;1.85;;
32200;SDS011;18701;45.588;5.288;2023-11-22T11:15:47;2.45;;;1.55;;
32200;SDS011;18701;45.588;5.288;2023-11-22T11:18:15;5.65;;;1.38;;
32200;SDS011;18701;45.588;5.288;2023-11-22T11:23:21;4.43;;;1.42;;
32200;SDS011;18701;45.588;5.288;2023-11-22T11:25:51;1.90;;;1.30;;
32200;SDS011;18701;45.588;5.288;2023-11-22T11:28:19;2.97;;;0.90;;
32200;SDS011;18701;45.588;5.288;2023-11-22T11:30:46;5.65;;;1.17;;
32200;SDS011;18701;45.588;5.288;2023-11-22T11:33:17;2.63;;;0.98;;
32200;SDS011;18701;45.588;5.288;2023-11-22T11:35:48;1.75;;;0.93;;
32200;SDS011;18701;45.588;5.288;2023-11-22T11:38:21;2.90;;;0.77;;
32200;SDS011;18701;45.588;5.288;2023-11-22T11:40:51;2.42;;;0.93;;
32200;SDS011;18701;45.588;5.288;2023-11-22T11:46:06;3.05;;;0.93;;
32200;SDS011;18701;45.588;5.288;2023-11-22T11:48:33;2.08;;;1.27;;
32200;SDS011;18701;45.588;5.288;2023-11-22T11:51:00;2.13;;;1.23;;
32200;SDS011;18701;45.588;5.288;2023-11-22T11:53:26;2.28;;;1.10;;
32200;SDS011;18701;45.588;5.288;2023-11-22T11:55:52;4.47;;;0.77;;
32200;SDS011;18701;45.588;5.288;2023-11-22T11:58:19;1.75;;;0.85;;
32200;SDS011;18701;45.588;5.288;2023-11-22T12:00:44;2.55;;;0.75;;
32200;SDS011;18701;45.588;5.288;2023-11-22T12:03:10;1.10;;;0.63;;
32200;SDS011;18701;45.588;5.288;2023-11-22T12:05:39;6.97;;;1.80;;
32200;SDS011;18701;45.588;5.288;2023-11-22T12:08:05;1.52;;;0.88;;
32200;SDS011;18701;45.588;5.288;2023-11-22T12:10:30;2.40;;;0.68;;
32200;SDS011;18701;45.588;5.288;2023-11-22T12:12:57;1.58;;;0.40;;
32200;SDS011;18701;45.588;5.288;2023-11-22T12:15:23;4.60;;;0.75;;
32200;SDS011;18701;45.588;5.288;2023-11-22T12:17:49;2.85;;;0.40;;
32200;SDS011;18701;45.588;5.288;2023-11-22T12:20:16;0.73;;;0.40;;
32200;SDS011;18701;45.588;5.288;2023-11-22T12:22:45;3.90;;;0.30;;
32200;SDS011;18701;45.588;5.288;2023-11-22T12:25:12;2.25;;;0.30;;
32200;SDS011;18701;45.588;5.288;2023-11-22T12:27:39;1.60;;;0.50;;
32200;SDS011;18701;45.588;5.288;2023-11-22T12:30:31;0.93;;;0.50;;
32200;SDS011;18701;45.588;5.288;2023-11-22T12:33:04;0.60;;;0.38;;
32200;SDS011;18701;45.588;5.288;2023-11-22T12:35:32;3.53;;;0.40;;
32200;SDS011;18701;45.588;5.288;2023-11-22T12:38:02;3.53;;;0.50;;
32200;SDS011;18701;45.588;5.288;2023-11-22T12:40:33;2.78;;;0.55;;
32200;SDS011;18701;45.588;5.288;2023-11-22T12:43:00;2.72;;;0.50;;
32200;SDS011;18701;45.588;5.288;2023-11-22T12:45:27;1.58;;;0.40;;
32200;SDS011;18701;45.588;5.288;2023-11-22T12:47:54;0.90;;;0.47;;
32200;SDS011;18701;45.588;5.288;2023-11-22T12:55:44;1.60;;;0.70;;
32200;SDS011;18701;45.588;5.288;2023-11-22T12:58:13;3.75;;;1.10;;
32200;SDS011;18701;45.588;5.288;2023-11-22T13:00:39;4.78;;;0.68;;
32200;SDS011;18701;45.588;5.288;2023-11-22T13:03:05;1.77;;;1.17;;
32200;SDS011;18701;45.588;5.288;2023-11-22T13:05:32;2.13;;;1.55;;
32200;SDS011;18701;45.588;5.288;2023-11-22T13:07:58;2.15;;;0.95;;
32200;SDS011;18701;45.588;5.288;2023-11-22T13:10:24;1.30;;;0.70;;
32200;SDS011;18701;45.588;5.288;2023-11-22T13:12:54;1.58;;;1.10;;
32200;SDS011;18701;45.588;5.288;2023-11-22T13:15:20;5.60;;;1.33;;
32200;SDS011;18701;45.588;5.288;2023-11-22T13:17:48;1.30;;;0.75;;
32200;SDS011;18701;45.588;5.288;2023-11-22T13:20:14;1.98;;;0.63;;
32200;SDS011;18701;45.588;5.288;2023-11-22T13:22:43;2.33;;;1.13;;
32200;SDS011;18701;45.588;5.288;2023-11-22T13:25:12;8.43;;;1.27;;
32200;SDS011;18701;45.588;5.288;2023-11-22T13:27:38;4.47;;;1.02;;
32200;SDS011;18701;45.588;5.288;2023-11-22T13:30:04;6.15;;;1.30;;
32200;SDS011;18701;45.588;5.288;2023-11-22T13:32:31;1.13;;;0.93;;
32200;SDS011;18701;45.588;5.288;2023-11-22T13:34:57;5.32;;;1.30;;
32200;SDS011;18701;45.588;5.288;2023-11-22T13:37:26;2.92;;;0.88;;
32200;SDS011;18701;45.588;5.288;2023-11-22T13:39:54;2.38;;;0.88;;
32200;SDS011;18701;45.588;5.288;2023-11-22T13:42:20;1.05;;;0.47;;
32200;SDS011;18701;45.588;5.288;2023-11-22T13:44:46;2.42;;;0.90;;
32200;SDS011;18701;45.588;5.288;2023-11-22T13:47:12;2.70;;;0.90;;
32200;SDS011;18701;45.588;5.288;2023-11-22T13:49:39;1.92;;;1.02;;
32200;SDS011;18701;45.588;5.288;2023-11-22T13:52:05;2.60;;;1.13;;
32200;SDS011;18701;45.588;5.288;2023-11-22T13:54:31;2.47;;;0.82;;
32200;SDS011;18701;45.588;5.288;2023-11-22T13:57:02;1.35;;;0.70;;
32200;SDS011;18701;45.588;5.288;2023-11-22T13:59:29;1.95;;;0.80;;
32200;SDS011;18701;45.588;5.288;2023-11-22T14:01:54;2.88;;;0.77;;
32200;SDS011;18701;45.588;5.288;2023-11-22T14:04:20;0.93;;;0.68;;
32200;SDS011;18701;45.588;5.288;2023-11-22T14:06:46;1.45;;;0.82;;
32200;SDS011;18701;45.588;5.288;2023-11-22T14:09:11;2.85;;;1.02;;
32200;SDS011;18701;45.588;5.288;2023-11-22T14:11:39;4.95;;;1.33;;
32200;SDS011;18701;45.588;5.288;2023-11-22T14:14:05;2.58;;;1.02;;
32200;SDS011;18701;45.588;5.288;2023-11-22T14:16:30;103.97;;;14.90;;
32200;SDS011;18701;45.588;5.288;2023-11-22T14:18:56;7.82;;;1.10;;
32200;SDS011;18701;45.588;5.288;2023-11-22T14:21:22;5.28;;;1.35;;
32200;SDS011;18701;45.588;5.288;2023-11-22T14:23:49;8.77;;;2.33;;
32200;SDS011;18701;45.588;5.288;2023-11-22T14:26:15;5.93;;;1.95;;
32200;SDS011;18701;45.588;5.288;2023-11-22T14:28:41;2.17;;;1.13;;
32200;SDS011;18701;45.588;5.288;2023-11-22T14:31:08;1.50;;;1.00;;
32200;SDS011;18701;45.588;5.288;2023-11-22T14:33:33;5.78;;;1.08;;
32200;SDS011;18701;45.588;5.288;2023-11-22T14:36:00;2.40;;;0.82;;
32200;SDS011;18701;45.588;5.288;2023-11-22T14:38:26;3.78;;;0.82;;
32200;SDS011;18701;45.588;5.288;2023-11-22T14:40:51;5.90;;;1.05;;
32200;SDS011;18701;45.588;5.288;2023-11-22T14:43:17;2.88;;;0.68;;
32200;SDS011;18701;45.588;5.288;2023-11-22T14:45:43;3.58;;;0.70;;
32200;SDS011;18701;45.588;5.288;2023-11-22T14:48:09;1.83;;;0.68;;
32200;SDS011;18701;45.588;5.288;2023-11-22T14:50:35;3.95;;;1.10;;
32200;SDS011;18701;45.588;5.288;2023-11-22T14:53:01;1.30;;;0.80;;
32200;SDS011;18701;45.588;5.288;2023-11-22T14:55:27;2.22;;;0.80;;
32200;SDS011;18701;45.588;5.288;2023-11-22T14:57:53;1.63;;;0.60;;